Time;durP1;ratioP1;P1;durP2;ratioP2;P2;SDS_P1;SDS_P2;PMS_P1;PMS_P2;Temp;Humidity;BMP_temperature;BMP_pressure;BME280_temperature;BME280_humidity;BME280_pressure;Samples;Min_cycle;Max_cycle;Signal;HPM_P1;HPM_P2
2022/10/04 00:02:05;;;;;;;20.88;9.15;;;13.40;99.90;;;;;;5075730;28;20033;-68
2022/10/04 00:04:44;;;;;;;19.92;9.80;;;13.30;99.90;;;;;;5075372;28;20028;-68
2022/10/04 00:07:12;;;;;;;23.77;10.68;;;13.50;99.90;;;;;;5074051;28;20377;-68
2022/10/04 00:09:47;;;;;;;29.55;10.38;;;13.40;99.90;;;;;;5057608;28;20037;-69
2022/10/04 00:12:39;;;;;;;22.50;9.63;;;13.30;99.90;;;;;;5078806;28;20071;-68
2022/10/04 00:15:17;;;;;;;24.47;10.30;;;13.20;99.90;;;;;;5070591;28;20471;-68
2022/10/04 00:17:43;;;;;;;20.73;10.40;;;13.40;99.90;;;;;;5070265;28;20281;-67
2022/10/04 00:20:52;;;;;;;23.00;10.60;;;13.30;99.90;;;;;;5095878;28;20150;-68
2022/10/04 00:23:23;;;;;;;25.92;10.55;;;13.10;99.90;;;;;;5071756;28;20059;-67
2022/10/04 00:25:51;;;;;;;19.63;10.27;;;13.00;99.90;;;;;;5080705;28;20120;-68
2022/10/04 00:28:20;;;;;;;23.13;10.65;;;13.00;99.90;;;;;;5077314;28;20042;-69
2022/10/04 00:31:05;;;;;;;19.50;10.35;;;13.10;99.90;;;;;;5095203;28;20063;-68
2022/10/04 00:33:52;;;;;;;19.73;9.88;;;13.10;99.90;;;;;;5095151;28;20028;-67
2022/10/04 00:36:24;;;;;;;25.05;10.73;;;12.80;99.90;;;;;;5067387;28;20020;-67
2022/10/04 00:39:08;;;;;;;18.67;10.90;;;12.80;99.90;;;;;;5077299;28;20028;-67
2022/10/04 00:41:46;;;;;;;19.98;9.60;;;12.70;99.90;;;;;;5062778;28;20082;-68
2022/10/04 00:44:21;;;;;;;23.48;10.88;;;12.80;99.90;;;;;;5089707;28;20024;-68
2022/10/04 00:46:48;;;;;;;17.35;9.55;;;12.90;99.90;;;;;;5094883;28;20035;-67
2022/10/04 00:49:19;;;;;;;23.35;11.60;;;12.90;99.90;;;;;;5094985;28;20024;-68
2022/10/04 00:51:45;;;;;;;24.52;10.98;;;13.00;99.90;;;;;;5077265;28;20491;-69
2022/10/04 00:54:13;;;;;;;19.38;10.10;;;13.00;99.90;;;;;;5096883;28;20063;-68
2022/10/04 00:56:49;;;;;;;25.08;11.30;;;12.90;99.90;;;;;;5097041;28;20092;-69
2022/10/04 00:59:29;;;;;;;22.65;10.45;;;12.90;99.90;;;;;;5095418;28;20077;-68
2022/10/04 01:02:04;;;;;;;25.13;10.52;;;13.00;99.90;;;;;;5067711;28;20543;-68
2022/10/04 01:04:44;;;;;;;28.40;10.88;;;12.90;99.90;;;;;;5095532;28;20047;-68
2022/10/04 01:07:13;;;;;;;22.10;10.95;;;12.90;99.90;;;;;;5069712;28;20119;-67
2022/10/04 01:09:49;;;;;;;20.35;10.13;;;12.60;99.90;;;;;;5094721;28;20070;-67
2022/10/04 01:12:44;;;;;;;23.83;10.88;;;12.60;99.90;;;;;;5094469;28;20028;-69
2022/10/04 01:15:33;;;;;;;22.10;10.80;;;12.60;99.90;;;;;;5091568;28;20484;-69
2022/10/04 01:18:33;;;;;;;24.73;10.85;;;12.70;99.90;;;;;;5086266;28;20036;-67
2022/10/04 01:21:06;;;;;;;22.65;11.00;;;12.50;99.90;;;;;;5093719;28;20443;-67
2022/10/04 01:23:43;;;;;;;26.10;11.18;;;12.50;99.90;;;;;;5094323;28;20039;-67
2022/10/04 01:26:33;;;;;;;23.42;11.10;;;12.40;99.90;;;;;;5076028;28;20118;-67
2022/10/04 01:29:37;;;;;;;20.58;11.73;;;12.40;99.90;;;;;;5094020;28;20048;-67
2022/10/04 01:32:03;;;;;;;22.85;11.05;;;12.40;99.90;;;;;;4992247;28;20109;-67
2022/10/04 01:34:29;;;;;;;27.17;12.85;;;12.40;99.90;;;;;;4992726;28;20113;-67
2022/10/04 01:36:58;;;;;;;21.38;10.55;;;12.40;99.90;;;;;;5040250;28;20420;-67
2022/10/04 01:39:26;;;;;;;29.17;11.07;;;12.10;99.90;;;;;;5048225;28;20514;-67
2022/10/04 01:42:09;;;;;;;18.77;10.57;;;12.20;99.90;;;;;;5093974;28;20542;-68
2022/10/04 01:45:06;;;;;;;21.02;11.82;;;12.10;99.90;;;;;;5067354;28;20377;-67
2022/10/04 01:47:43;;;;;;;23.85;11.20;;;12.30;99.90;;;;;;5093759;28;20031;-67
2022/10/04 01:50:29;;;;;;;20.10;11.27;;;12.20;99.90;;;;;;5075817;28;20028;-68
2022/10/04 01:53:00;;;;;;;20.63;10.60;;;12.30;99.90;;;;;;5093621;28;20388;-67
2022/10/04 01:55:33;;;;;;;20.33;10.57;;;12.30;99.90;;;;;;5093605;28;20040;-67
2022/10/04 01:58:27;;;;;;;16.35;9.50;;;12.20;99.90;;;;;;5093577;28;20068;-67
2022/10/04 02:01:05;;;;;;;25.95;11.27;;;12.10;99.90;;;;;;5069873;28;20044;-67
2022/10/04 02:03:33;;;;;;;25.80;12.07;;;12.00;99.90;;;;;;5093686;28;20035;-66
2022/10/04 02:06:03;;;;;;;23.15;11.85;;;12.10;99.90;;;;;;5093424;28;20028;-68
2022/10/04 02:08:32;;;;;;;20.88;11.23;;;12.20;99.90;;;;;;5093686;28;20039;-67
2022/10/04 02:11:00;;;;;;;22.13;11.70;;;12.10;99.90;;;;;;5075580;28;20046;-68
2022/10/04 02:13:39;;;;;;;19.15;11.65;;;12.20;99.90;;;;;;5065258;28;20093;-67
2022/10/04 02:16:10;;;;;;;29.10;11.90;;;12.20;99.90;;;;;;5083053;28;20036;-67
2022/10/04 02:18:38;;;;;;;26.90;12.30;;;12.20;99.90;;;;;;5090030;28;20040;-68
2022/10/04 02:21:06;;;;;;;20.55;12.48;;;12.00;99.90;;;;;;5093535;28;20032;-66
2022/10/04 02:23:34;;;;;;;27.17;13.35;;;12.00;99.90;;;;;;5093222;28;20103;-67
2022/10/04 02:26:07;;;;;;;27.83;12.70;;;11.80;99.90;;;;;;5093195;28;20119;-68
2022/10/04 02:28:34;;;;;;;27.80;13.70;;;11.80;99.90;;;;;;5092511;28;20048;-67
2022/10/04 02:33:48;;;;;;;25.55;12.45;;;11.40;99.90;;;;;;5093146;28;20067;-67
2022/10/04 02:36:15;;;;;;;28.42;14.02;;;11.30;99.90;;;;;;5075137;28;20032;-67
2022/10/04 02:38:49;;;;;;;22.20;13.23;;;11.30;99.90;;;;;;5092938;28;20544;-67
2022/10/04 02:41:36;;;;;;;35.45;14.05;;;11.30;99.90;;;;;;5092400;28;20028;-67
2022/10/04 02:44:16;;;;;;;27.15;14.30;;;11.00;99.90;;;;;;5092502;28;20039;-67
2022/10/04 02:46:49;;;;;;;29.63;13.35;;;10.90;99.90;;;;;;5092969;28;20037;-67
2022/10/04 02:49:30;;;;;;;37.95;14.48;;;11.00;99.90;;;;;;5092622;28;20078;-68
2022/10/04 02:52:05;;;;;;;33.28;14.18;;;11.10;99.90;;;;;;5092978;28;20404;-67
2022/10/04 02:55:05;;;;;;;27.90;15.25;;;11.20;99.90;;;;;;5092596;28;20027;-67
2022/10/04 02:57:32;;;;;;;30.27;15.02;;;11.30;99.90;;;;;;5092322;28;20059;-68
2022/10/04 03:00:28;;;;;;;26.75;14.18;;;11.40;99.90;;;;;;5074789;28;20115;-67
2022/10/04 03:03:06;;;;;;;32.67;14.23;;;11.40;99.90;;;;;;5074409;28;20553;-67
2022/10/04 03:05:32;;;;;;;32.22;15.32;;;11.40;99.90;;;;;;5092583;28;20418;-68
2022/10/04 03:07:58;;;;;;;31.75;15.40;;;11.30;99.90;;;;;;5092590;28;20028;-67
2022/10/04 03:10:25;;;;;;;25.92;15.05;;;11.30;99.90;;;;;;5092744;28;20031;-67
2022/10/04 03:12:52;;;;;;;31.35;15.43;;;11.20;99.90;;;;;;5092477;28;20414;-67
2022/10/04 03:15:18;;;;;;;27.58;16.17;;;11.20;99.90;;;;;;5088942;28;20025;-67
2022/10/04 03:17:45;;;;;;;28.92;15.43;;;11.30;99.90;;;;;;5082377;28;20380;-67
2022/10/04 03:20:15;;;;;;;29.50;16.30;;;11.30;99.90;;;;;;5092330;28;20040;-67
2022/10/04 03:22:43;;;;;;;33.17;15.98;;;11.30;99.90;;;;;;5092655;28;20020;-67
2022/10/04 03:25:16;;;;;;;30.75;16.33;;;11.20;99.90;;;;;;5091938;28;20105;-67
2022/10/04 03:27:43;;;;;;;27.65;15.40;;;11.20;99.90;;;;;;5074220;28;20032;-67
2022/10/04 03:30:13;;;;;;;27.38;16.25;;;11.30;99.90;;;;;;5092288;28;20035;-67
2022/10/04 03:32:40;;;;;;;39.75;16.42;;;11.40;99.90;;;;;;5065390;28;20107;-66
2022/10/04 03:35:23;;;;;;;30.60;16.58;;;11.20;99.90;;;;;;5092451;28;20020;-66
2022/10/04 03:37:49;;;;;;;25.75;14.88;;;11.10;99.90;;;;;;5066250;28;20039;-67
2022/10/04 03:40:15;;;;;;;35.92;17.70;;;11.10;99.90;;;;;;5091846;28;20023;-67
2022/10/04 03:42:44;;;;;;;34.58;17.05;;;11.20;99.90;;;;;;5092344;28;20376;-69
2022/10/04 03:45:15;;;;;;;38.92;17.58;;;11.20;99.90;;;;;;5092233;28;20035;-69
2022/10/04 03:47:47;;;;;;;36.92;16.92;;;11.10;99.90;;;;;;5092197;28;20042;-67
2022/10/04 03:50:28;;;;;;;;;;;11.10;99.90;;;;;;5092754;28;20040;-67
2022/10/04 03:52:57;;;;;;;32.70;17.02;;;11.10;99.90;;;;;;5074860;28;20004;-69
2022/10/04 03:55:43;;;;;;;25.95;15.63;;;10.90;99.90;;;;;;5095565;28;20050;-69
2022/10/04 03:58:11;;;;;;;36.03;18.10;;;11.00;99.90;;;;;;5068388;28;20036;-68
2022/10/04 04:00:57;;;;;;;36.25;16.88;;;10.90;99.90;;;;;;5095951;28;20032;-69
2022/10/04 04:03:27;;;;;;;34.00;17.48;;;11.00;99.90;;;;;;5044673;28;20059;-66
2022/10/04 04:05:58;;;;;;;32.10;16.42;;;11.00;99.90;;;;;;5095735;28;20024;-69
2022/10/04 04:08:28;;;;;;;31.20;15.57;;;10.90;99.90;;;;;;5068947;28;20028;-69
2022/10/04 04:10:57;;;;;;;30.45;16.08;;;10.80;99.90;;;;;;5095415;28;20020;-68
2022/10/04 04:13:47;;;;;;;32.05;16.73;;;10.80;99.90;;;;;;5095660;28;20035;-70
2022/10/04 04:16:13;;;;;;;33.88;16.52;;;10.70;99.90;;;;;;5084242;28;20149;-70
2022/10/04 04:18:42;;;;;;;32.90;17.40;;;10.60;99.90;;;;;;5074643;28;20478;-69
2022/10/04 04:21:11;;;;;;;30.70;17.13;;;10.50;99.90;;;;;;5085938;28;20391;-69
2022/10/04 04:23:40;;;;;;;33.85;17.42;;;10.50;99.90;;;;;;5095420;28;20372;-69
2022/10/04 04:26:18;;;;;;;40.00;16.98;;;10.50;99.90;;;;;;5095075;28;20120;-69
2022/10/04 04:28:49;;;;;;;32.92;17.88;;;10.60;99.90;;;;;;5095510;28;20388;-69
2022/10/04 04:31:24;;;;;;;29.58;16.65;;;10.70;99.90;;;;;;5095157;28;20028;-69
2022/10/04 04:34:05;;;;;;;31.25;18.35;;;10.60;99.90;;;;;;5095302;28;20036;-69
2022/10/04 04:36:41;;;;;;;38.50;17.27;;;10.70;99.90;;;;;;5095245;28;20430;-69
2022/10/04 04:39:39;;;;;;;28.35;18.02;;;10.70;99.90;;;;;;5076861;28;20099;-69
2022/10/04 04:42:13;;;;;;;31.88;17.05;;;10.80;99.90;;;;;;5094947;28;20032;-68
2022/10/04 04:44:48;;;;;;;35.28;17.38;;;11.00;99.90;;;;;;5077101;28;20154;-70
2022/10/04 04:47:33;;;;;;;24.67;15.18;;;11.00;99.90;;;;;;5094737;28;20039;-70
2022/10/04 04:50:20;;;;;;;30.33;16.40;;;11.00;99.90;;;;;;5095210;28;20046;-71
2022/10/04 04:52:52;;;;;;;35.55;16.60;;;11.00;99.90;;;;;;5094789;28;20055;-71
2022/10/04 04:55:31;;;;;;;34.15;16.33;;;11.00;99.90;;;;;;5094894;28;20024;-71
2022/10/04 04:57:58;;;;;;;33.05;15.48;;;11.20;99.90;;;;;;5094751;28;20039;-71
2022/10/04 05:00:37;;;;;;;39.28;15.73;;;11.20;99.90;;;;;;5094719;28;20032;-72
2022/10/04 05:03:18;;;;;;;35.83;16.13;;;11.10;99.90;;;;;;5094767;28;20054;-72
2022/10/04 05:05:46;;;;;;;31.35;15.00;;;11.20;99.90;;;;;;5093888;28;20035;-70
2022/10/04 05:08:12;;;;;;;28.88;14.27;;;11.10;99.90;;;;;;5094273;28;20114;-71
2022/10/04 05:10:41;;;;;;;31.25;15.50;;;11.10;99.90;;;;;;5059534;28;20466;-70
2022/10/04 05:13:09;;;;;;;40.15;15.15;;;11.10;99.90;;;;;;5094511;28;20031;-72
2022/10/04 05:15:38;;;;;;;33.90;15.70;;;11.10;99.90;;;;;;5088490;28;20056;-69
2022/10/04 05:18:23;;;;;;;33.92;16.90;;;11.20;99.90;;;;;;5086913;28;20111;-72
2022/10/04 05:20:52;;;;;;;39.50;16.45;;;11.40;99.90;;;;;;5068341;28;20376;-68
2022/10/04 05:23:17;;;;;;;34.13;15.85;;;11.20;99.90;;;;;;5094279;28;20032;-69
2022/10/04 05:25:44;;;;;;;29.00;15.45;;;11.20;99.90;;;;;;5094052;28;20046;-70
2022/10/04 05:28:17;;;;;;;26.38;15.38;;;11.10;99.90;;;;;;5059343;28;20476;-73
2022/10/04 05:30:52;;;;;;;28.13;15.40;;;11.10;99.90;;;;;;5094260;28;20472;-68
2022/10/04 05:33:38;;;;;;;25.00;13.35;;;11.10;99.90;;;;;;5094372;28;20111;-68
2022/10/04 05:36:34;;;;;;;29.48;13.75;;;11.00;99.90;;;;;;5066918;28;20028;-68
2022/10/04 05:39:20;;;;;;;32.13;14.30;;;11.00;99.90;;;;;;5094088;28;20040;-68
2022/10/04 05:42:01;;;;;;;31.63;15.18;;;11.10;99.90;;;;;;5075887;28;20028;-69
2022/10/04 05:44:35;;;;;;;23.73;13.23;;;11.30;99.90;;;;;;5094200;28;20032;-69
2022/10/04 05:47:06;;;;;;;33.85;14.23;;;11.30;99.90;;;;;;5094008;28;20355;-69
2022/10/04 05:49:43;;;;;;;25.15;13.07;;;11.20;99.90;;;;;;5093599;28;20053;-70
2022/10/04 05:52:26;;;;;;;34.63;14.55;;;11.10;99.90;;;;;;5093134;28;20149;-68
2022/10/04 05:55:10;;;;;;;26.67;14.48;;;11.30;99.90;;;;;;5093530;28;20028;-68
2022/10/04 05:58:17;;;;;;;30.38;13.82;;;11.40;99.90;;;;;;5093468;28;20036;-68
2022/10/04 06:01:20;;;;;;;29.67;15.25;;;11.40;99.90;;;;;;5083921;28;20117;-68
2022/10/04 06:04:03;;;;;;;29.23;15.07;;;11.50;99.90;;;;;;5044380;28;20035;-68
2022/10/04 06:06:55;;;;;;;29.05;14.02;;;11.40;99.90;;;;;;5071017;28;20591;-68
2022/10/04 06:09:48;;;;;;;32.90;15.45;;;11.50;99.90;;;;;;5052868;28;20036;-68
2022/10/04 06:12:25;;;;;;;29.63;13.68;;;11.40;99.90;;;;;;5069701;28;20103;-68
2022/10/04 06:15:21;;;;;;;28.58;14.38;;;11.40;99.90;;;;;;5072160;28;20024;-69
2022/10/04 06:18:05;;;;;;;34.40;15.30;;;11.40;99.90;;;;;;5079522;28;20063;-68
2022/10/04 06:20:53;;;;;;;30.25;15.27;;;11.00;99.90;;;;;;5084820;28;20121;-68
2022/10/04 06:23:21;;;;;;;42.17;15.25;;;11.20;99.90;;;;;;5074583;28;20036;-68
2022/10/04 06:26:08;;;;;;;30.70;14.60;;;11.10;99.90;;;;;;5060142;28;20067;-69
2022/10/04 06:28:39;;;;;;;32.20;14.52;;;11.00;99.90;;;;;;5077527;28;20481;-69
2022/10/04 06:31:39;;;;;;;32.53;13.02;;;10.80;99.90;;;;;;5075950;28;20443;-68
2022/10/04 06:34:13;;;;;;;33.30;15.55;;;10.60;99.90;;;;;;5068096;28;20103;-69
2022/10/04 06:36:58;;;;;;;26.27;13.77;;;10.40;99.90;;;;;;5078094;28;20044;-69
2022/10/04 06:39:46;;;;;;;33.03;15.23;;;10.40;99.90;;;;;;5071969;28;20787;-69
2022/10/04 06:42:32;;;;;;;27.27;14.30;;;10.40;99.90;;;;;;5069458;28;20388;-69
2022/10/04 06:45:12;;;;;;;29.63;14.10;;;10.50;99.90;;;;;;5083887;28;20063;-69
2022/10/04 06:47:43;;;;;;;33.42;13.40;;;10.30;99.90;;;;;;5079293;28;20107;-69
2022/10/04 06:50:34;;;;;;;35.03;14.60;;;10.40;99.90;;;;;;5082564;28;20093;-68
2022/10/04 06:53:38;;;;;;;32.35;13.68;;;10.60;99.90;;;;;;5048657;28;20393;-69
2022/10/04 06:56:31;;;;;;;27.33;13.60;;;10.60;99.90;;;;;;5072907;28;20043;-68
2022/10/04 06:59:02;;;;;;;26.63;13.63;;;10.60;99.90;;;;;;5076296;28;20036;-69
2022/10/04 07:01:31;;;;;;;35.20;13.90;;;10.70;99.90;;;;;;5071476;28;20481;-68
2022/10/04 07:04:00;;;;;;;42.10;13.40;;;10.70;99.90;;;;;;5053393;28;20034;-69
2022/10/04 07:06:51;;;;;;;27.58;13.55;;;10.80;99.90;;;;;;5070235;28;20029;-68
2022/10/04 07:09:26;;;;;;;20.10;12.23;;;10.80;99.90;;;;;;5071238;28;20060;-69
2022/10/04 07:12:08;;;;;;;23.90;13.45;;;10.90;99.90;;;;;;5071401;28;20289;-70
2022/10/04 07:14:42;;;;;;;33.40;12.48;;;10.90;99.90;;;;;;5042161;28;20025;-70
2022/10/04 07:17:18;;;;;;;26.83;12.43;;;11.00;99.90;;;;;;5058364;28;20435;-71
2022/10/04 07:19:50;;;;;;;25.98;12.27;;;11.20;99.90;;;;;;5089181;28;20036;-72
2022/10/04 07:22:21;;;;;;;24.30;12.52;;;11.10;99.90;;;;;;5074786;28;20522;-71
2022/10/04 07:24:55;;;;;;;31.45;12.73;;;11.20;99.90;;;;;;5076172;28;20028;-69
2022/10/04 07:27:27;;;;;;;23.77;12.00;;;11.30;99.90;;;;;;5065753;28;20037;-70
2022/10/04 07:30:00;;;;;;;27.85;12.60;;;11.40;99.90;;;;;;5071505;28;20063;-70
2022/10/04 07:32:35;;;;;;;26.52;11.48;;;11.50;99.90;;;;;;5067118;28;20039;-70
2022/10/04 07:35:12;;;;;;;25.38;11.57;;;11.70;99.90;;;;;;5055331;28;20028;-69
2022/10/04 07:37:59;;;;;;;21.58;11.65;;;11.70;99.90;;;;;;5071953;28;20043;-69
2022/10/04 07:40:35;;;;;;;27.10;11.38;;;11.90;99.90;;;;;;5069437;28;20081;-71
2022/10/04 07:43:08;;;;;;;28.38;12.13;;;12.00;99.90;;;;;;5058055;28;20105;-70
2022/10/04 07:45:38;;;;;;;24.23;11.95;;;12.10;99.90;;;;;;5071223;28;20021;-70
2022/10/04 07:48:18;;;;;;;21.98;11.02;;;12.20;99.90;;;;;;5072499;28;20033;-71
2022/10/04 07:51:02;;;;;;;20.00;11.30;;;12.30;99.90;;;;;;5074101;28;20020;-69
2022/10/04 07:53:45;;;;;;;26.92;10.60;;;12.50;99.90;;;;;;5074920;28;20086;-69
2022/10/04 07:56:21;;;;;;;25.25;10.55;;;12.70;99.90;;;;;;5073651;28;20021;-71
2022/10/04 07:58:52;;;;;;;16.30;11.05;;;12.50;99.90;;;;;;5058698;28;20112;-68
2022/10/04 08:01:38;;;;;;;18.73;11.18;;;12.60;99.90;;;;;;5067588;28;20112;-69
2022/10/04 08:04:29;;;;;;;18.35;10.27;;;12.50;99.90;;;;;;5069205;28;20033;-71
2022/10/04 08:07:01;;;;;;;19.58;10.10;;;12.70;99.90;;;;;;5069975;28;20353;-71
2022/10/04 08:09:40;;;;;;;;;;;12.80;99.90;;;;;;5075031;28;20643;-70
2022/10/04 08:12:21;;;;;;;28.02;11.38;;;12.90;99.90;;;;;;5074706;28;20364;-72
2022/10/04 08:14:53;;;;;;;18.33;8.50;;;12.90;99.90;;;;;;5072081;28;20040;-72
2022/10/04 08:17:36;;;;;;;25.33;10.25;;;13.00;99.90;;;;;;5078432;28;20021;-71
2022/10/04 08:20:24;;;;;;;19.63;9.98;;;13.00;99.90;;;;;;5091278;28;20039;-72
2022/10/04 08:23:17;;;;;;;18.17;9.70;;;13.20;99.90;;;;;;5076936;28;20094;-70
2022/10/04 08:26:26;;;;;;;17.35;9.35;;;13.30;99.90;;;;;;5084603;28;20114;-69
2022/10/04 08:32:29;;;;;;;26.85;10.40;;;13.70;99.90;;;;;;5079790;28;20507;-68
2022/10/04 08:34:54;;;;;;;20.67;9.38;;;13.60;99.90;;;;;;5077439;28;20473;-68
2022/10/04 08:37:39;;;;;;;20.40;10.05;;;13.50;99.90;;;;;;5083238;28;20103;-68
2022/10/04 08:40:33;;;;;;;18.35;9.10;;;13.40;99.90;;;;;;5085990;28;20521;-68
2022/10/04 08:43:04;;;;;;;18.90;9.50;;;13.40;99.90;;;;;;5060748;28;20094;-69
2022/10/04 08:45:55;;;;;;;20.30;10.00;;;13.50;99.90;;;;;;5080373;28;20487;-69
2022/10/04 08:48:57;;;;;;;21.48;10.40;;;13.60;99.90;;;;;;5073871;28;20059;-69
2022/10/04 08:51:59;;;;;;;26.20;9.77;;;13.80;99.90;;;;;;5061966;28;20044;-69
2022/10/04 08:54:40;;;;;;;18.67;10.48;;;14.00;99.90;;;;;;5070027;28;20512;-69
2022/10/04 08:57:31;;;;;;;18.33;10.30;;;14.20;99.90;;;;;;5075378;28;20044;-69
2022/10/04 09:00:30;;;;;;;16.33;9.13;;;14.30;99.90;;;;;;5069728;28;20068;-68
2022/10/04 09:03:25;;;;;;;25.02;10.40;;;14.50;99.90;;;;;;5051196;28;20037;-68
2022/10/04 09:06:18;;;;;;;26.08;10.02;;;14.50;99.90;;;;;;5073381;28;20058;-68
2022/10/04 09:09:05;;;;;;;22.15;9.65;;;14.50;99.90;;;;;;5065087;28;20048;-68
2022/10/04 09:11:50;;;;;;;20.90;9.52;;;14.60;99.90;;;;;;5071707;28;20052;-68
2022/10/04 09:14:37;;;;;;;17.75;9.77;;;14.80;99.90;;;;;;5072745;28;20028;-69
2022/10/04 09:17:29;;;;;;;21.70;9.00;;;14.80;99.90;;;;;;5075385;28;20027;-68
2022/10/04 09:20:32;;;;;;;15.80;8.63;;;14.80;99.90;;;;;;5091008;28;20107;-68
2022/10/04 09:23:19;;;;;;;26.23;8.88;;;14.70;99.90;;;;;;5066170;28;20029;-68
2022/10/04 09:25:48;;;;;;;16.90;8.60;;;14.90;99.90;;;;;;5033437;28;20478;-69
2022/10/04 09:28:23;;;;;;;17.80;8.13;;;15.10;99.90;;;;;;5083826;28;20512;-68
2022/10/04 09:31:10;;;;;;;19.92;8.73;;;15.20;99.90;;;;;;5069712;28;20054;-68
2022/10/04 09:33:58;;;;;;;18.33;8.40;;;15.20;99.90;;;;;;5073828;28;20028;-68
2022/10/04 09:36:57;;;;;;;18.40;8.45;;;15.30;99.90;;;;;;5068191;28;20047;-69
2022/10/04 09:39:38;;;;;;;20.50;9.55;;;15.60;99.90;;;;;;5046932;28;20044;-69
2022/10/04 09:42:32;;;;;;;22.58;8.40;;;15.80;99.90;;;;;;5088763;28;20031;-69
2022/10/04 09:45:04;;;;;;;18.65;8.20;;;15.80;99.90;;;;;;5064544;28;20029;-69
2022/10/04 09:48:08;;;;;;;12.98;7.03;;;16.10;99.90;;;;;;5037987;28;20028;-68
2022/10/04 09:50:50;;;;;;;21.40;7.97;;;15.80;99.90;;;;;;5067611;28;20054;-68
2022/10/04 09:53:31;;;;;;;15.13;8.02;;;15.90;99.90;;;;;;5068357;28;20115;-68
2022/10/04 09:56:31;;;;;;;15.13;7.18;;;15.70;99.90;;;;;;5064361;28;20035;-68
2022/10/04 09:59:15;;;;;;;20.42;7.72;;;15.60;99.90;;;;;;5062592;28;20497;-69
2022/10/04 10:02:03;;;;;;;17.95;7.18;;;16.00;99.90;;;;;;5066621;28;20021;-68
2022/10/04 10:04:36;;;;;;;16.45;6.80;;;16.60;99.90;;;;;;5070564;28;20033;-68
2022/10/04 10:07:43;;;;;;;14.63;7.32;;;16.70;99.90;;;;;;5066903;28;20028;-68
2022/10/04 10:13:46;;;;;;;12.98;7.75;;;16.40;99.90;;;;;;5071822;28;20036;-69
2022/10/04 10:16:48;;;;;;;17.15;8.07;;;16.20;99.90;;;;;;5032225;28;20101;-68
2022/10/04 10:19:32;;;;;;;21.58;7.47;;;16.40;99.90;;;;;;5070762;28;20035;-68
2022/10/04 10:22:10;;;;;;;18.73;7.18;;;16.60;99.90;;;;;;5092295;28;20400;-69
2022/10/04 10:25:05;;;;;;;22.88;7.53;;;16.90;99.90;;;;;;5077126;28;20103;-68
2022/10/04 10:27:43;;;;;;;13.75;6.90;;;17.00;99.90;;;;;;5070728;28;20115;-68
2022/10/04 10:30:37;;;;;;;13.90;6.65;;;17.00;99.90;;;;;;5086291;28;20050;-68
2022/10/04 10:33:29;;;;;;;12.20;7.20;;;16.90;99.90;;;;;;5062415;28;20041;-68
2022/10/04 10:36:15;;;;;;;25.45;8.23;;;17.20;99.90;;;;;;5080595;28;20472;-68
2022/10/04 10:39:03;;;;;;;19.33;7.68;;;17.60;99.90;;;;;;5091329;28;20040;-69
2022/10/04 10:42:15;;;;;;;14.27;6.93;;;17.20;99.90;;;;;;5085666;28;20122;-68
2022/10/04 10:45:00;;;;;;;13.00;7.57;;;17.30;99.90;;;;;;5048624;28;20111;-68
2022/10/04 10:47:52;;;;;;;11.35;6.55;;;17.60;99.90;;;;;;5069725;28;20020;-68
2022/10/04 10:50:18;;;;;;;12.55;5.75;;;17.40;99.90;;;;;;5069484;28;20151;-68
2022/10/04 10:53:10;;;;;;;16.63;6.65;;;17.70;99.90;;;;;;5065711;28;20105;-69
2022/10/04 10:56:07;;;;;;;19.60;6.85;;;17.50;99.90;;;;;;5064894;28;20024;-68
2022/10/04 10:59:06;;;;;;;16.17;6.13;;;17.40;99.90;;;;;;5069232;28;20104;-68
2022/10/04 11:02:13;;;;;;;16.58;6.55;;;17.50;99.90;;;;;;5065892;28;20025;-68
2022/10/04 11:04:57;;;;;;;13.07;4.72;;;17.60;99.90;;;;;;5071081;28;20477;-69
2022/10/04 11:07:32;;;;;;;14.20;5.75;;;18.00;99.90;;;;;;5064177;28;20116;-68
2022/10/04 11:10:10;;;;;;;11.32;5.70;;;17.90;99.90;;;;;;5070956;28;20044;-68
2022/10/04 11:12:51;;;;;;;14.63;6.68;;;18.50;99.90;;;;;;5067941;28;20094;-68
2022/10/04 11:15:46;;;;;;;16.48;5.30;;;18.30;99.90;;;;;;5066904;28;20031;-68
2022/10/04 11:18:34;;;;;;;10.85;4.85;;;18.60;99.90;;;;;;5071994;28;20036;-68
2022/10/04 11:21:33;;;;;;;10.40;5.00;;;19.70;99.90;;;;;;5058473;28;20039;-68
2022/10/04 11:24:36;;;;;;;12.13;5.50;;;20.30;99.90;;;;;;5065761;28;20039;-68
2022/10/04 11:27:36;;;;;;;12.27;5.20;;;20.00;99.90;;;;;;5082640;28;20499;-68
2022/10/04 11:30:12;;;;;;;16.52;5.72;;;19.70;99.90;;;;;;5058671;28;20032;-68
2022/10/04 11:32:58;;;;;;;12.93;5.95;;;19.10;99.90;;;;;;5073035;28;20392;-68
2022/10/04 11:35:32;;;;;;;13.77;5.63;;;19.00;99.90;;;;;;5071310;28;20036;-68
2022/10/04 11:38:21;;;;;;;19.38;5.97;;;19.60;99.90;;;;;;5060310;28;20028;-68
2022/10/04 11:41:26;;;;;;;10.63;5.13;;;20.40;99.90;;;;;;5067331;28;20032;-68
2022/10/04 11:44:13;;;;;;;12.90;5.85;;;20.10;99.90;;;;;;5015137;28;20076;-69
2022/10/04 11:47:02;;;;;;;11.27;5.80;;;20.60;99.90;;;;;;5072278;28;20038;-68
2022/10/04 11:49:55;;;;;;;10.77;4.88;;;20.60;99.90;;;;;;5070647;28;20484;-67
2022/10/04 11:53:02;;;;;;;18.80;4.97;;;20.50;99.90;;;;;;5071928;28;20026;-69
2022/10/04 11:56:02;;;;;;;7.07;4.40;;;20.70;99.90;;;;;;5071795;28;20037;-69
2022/10/04 11:58:43;;;;;;;13.65;4.63;;;21.30;99.90;;;;;;5064891;28;20059;-69
2022/10/04 12:01:29;;;;;;;11.63;5.43;;;21.70;99.90;;;;;;5069038;28;20012;-69
2022/10/04 12:04:20;;;;;;;11.02;4.25;;;21.30;99.90;;;;;;5071942;28;20127;-69
2022/10/04 12:06:52;;;;;;;8.77;4.27;;;21.60;99.90;;;;;;5063144;28;20036;-69
2022/10/04 12:09:32;;;;;;;12.13;4.65;;;20.50;99.90;;;;;;5071282;28;20302;-68
2022/10/04 12:12:37;;;;;;;11.63;4.45;;;21.30;99.90;;;;;;5071722;28;20032;-68
2022/10/04 12:15:37;;;;;;;7.95;3.75;;;21.80;99.90;;;;;;5073372;28;20043;-68
2022/10/04 12:18:35;;;;;;;16.50;5.05;;;21.70;99.90;;;;;;5087936;28;20380;-69
2022/10/04 12:21:31;;;;;;;16.75;5.32;;;21.50;99.90;;;;;;5094975;28;20040;-68
2022/10/04 12:24:46;;;;;;;9.68;5.15;;;21.30;99.90;;;;;;5095176;28;20032;-71
2022/10/04 12:27:23;;;;;;;8.95;4.38;;;22.00;99.90;;;;;;5069849;28;20036;-68
2022/10/04 12:30:14;;;;;;;7.25;4.25;;;22.40;99.90;;;;;;5095390;28;20075;-68
2022/10/04 12:33:18;;;;;;;7.82;4.40;;;21.40;99.90;;;;;;5068305;28;20423;-68
2022/10/04 12:36:23;;;;;;;11.05;4.60;;;21.80;99.90;;;;;;5095262;28;20016;-68
2022/10/04 12:39:23;;;;;;;11.52;4.78;;;21.60;99.90;;;;;;5095460;28;20036;-69
2022/10/04 12:42:07;;;;;;;9.68;5.30;;;21.60;99.90;;;;;;5095214;28;20060;-68
2022/10/04 12:44:42;;;;;;;10.93;4.57;;;22.40;99.90;;;;;;5067938;28;20027;-68
2022/10/04 12:47:26;;;;;;;9.27;4.85;;;23.50;99.90;;;;;;5072667;28;20020;-68
2022/10/04 12:50:17;;;;;;;8.23;4.57;;;23.20;99.90;;;;;;5053020;28;20488;-68
2022/10/04 12:53:05;;;;;;;10.00;3.45;;;23.60;99.90;;;;;;5083324;28;20059;-68
2022/10/04 12:55:58;;;;;;;8.18;4.20;;;22.90;99.90;;;;;;5087175;28;20039;-70
2022/10/04 12:58:32;;;;;;;12.20;3.92;;;21.70;99.90;;;;;;5071712;28;20513;-69
2022/10/04 13:01:20;;;;;;;12.75;4.03;;;22.90;99.90;;;;;;5094643;28;20024;-68
2022/10/04 13:03:52;;;;;;;10.07;4.50;;;22.90;99.90;;;;;;5094902;28;20035;-69
2022/10/04 13:06:47;;;;;;;12.73;4.35;;;23.00;99.90;;;;;;5076277;28;20032;-69
2022/10/04 13:09:28;;;;;;;7.05;4.07;;;23.20;99.90;;;;;;5094723;28;20502;-69
2022/10/04 13:12:33;;;;;;;12.38;4.05;;;23.30;99.90;;;;;;5069780;28;20024;-67
2022/10/04 13:14:59;;;;;;;6.90;4.03;;;24.00;99.90;;;;;;5093449;28;20028;-66
2022/10/04 13:17:44;;;;;;;12.68;3.97;;;23.50;99.90;;;;;;5081260;28;20103;-66
2022/10/04 13:20:25;;;;;;;21.45;4.07;;;23.10;99.90;;;;;;5075696;28;20020;-66
2022/10/04 13:23:03;;;;;;;10.15;3.67;;;23.90;99.70;;;;;;5094391;28;20044;-66
2022/10/04 13:25:55;;;;;;;10.07;4.03;;;23.70;99.40;;;;;;5090907;28;20484;-69
2022/10/04 13:28:42;;;;;;;12.13;4.03;;;23.30;99.90;;;;;;5058623;28;20127;-67
2022/10/04 13:31:47;;;;;;;6.97;3.25;;;22.60;99.90;;;;;;5051930;28;20035;-70
2022/10/04 13:34:50;;;;;;;14.98;3.38;;;23.80;99.90;;;;;;5038617;28;20028;-71
2022/10/04 13:37:41;;;;;;;11.65;3.70;;;23.90;99.50;;;;;;5093994;28;20040;-71
2022/10/04 13:40:17;;;;;;;11.77;3.37;;;23.70;99.10;;;;;;5094023;28;20043;-73
2022/10/04 13:43:12;;;;;;;8.63;3.17;;;23.10;99.90;;;;;;5093892;28;20507;-71
2022/10/04 13:46:03;;;;;;;7.88;3.15;;;23.20;99.90;;;;;;5091143;28;20036;-71
2022/10/04 13:48:56;;;;;;;5.80;3.20;;;23.90;99.80;;;;;;5093836;28;20086;-71
2022/10/04 13:51:37;;;;;;;5.97;3.42;;;23.30;99.90;;;;;;5075431;28;20030;-71
2022/10/04 13:56:57;;;;;;;7.13;3.00;;;23.50;99.90;;;;;;5093706;28;20031;-71
2022/10/04 13:59:33;;;;;;;6.85;2.88;;;24.10;99.40;;;;;;5093690;28;20126;-71